San Diego, California
Traffic Map
Current Weather Conditions
San Diego, California
Few Clouds
Few Clouds
12°
Feels Like: 12°
Wind Chill: 12° Ceiling: Unl
Heat Index: 12° Visibility: 10mi
Dew Point: Wind: 0mph
Humidity: 80% Direction: ° ()
Pressure: 30.16in Gusts: 0mph
Raw Report DataKSAN 201251Z 00000KT 10SM FEW250 12/08 A3016 RMK AO2 SLP211 T01170083
Traffic Incident Summary
Active as of:
Severity:
Category:
InformationThere was an issue retrieving the traffic information for this location. Please try a different location or try again shortly.
Advertisements
Track Severe Weather on mobile